createdAt,value
2023-03-12T00:01:16.723Z,2.15
2023-03-12T00:03:43.680Z,2.16
2023-03-12T00:06:11.202Z,2.15
2023-03-12T00:08:37.884Z,2.17
2023-03-12T00:11:09.336Z,2.18
2023-03-12T00:13:36.098Z,2.19
2023-03-12T00:16:08.471Z,2.21
2023-03-12T00:18:34.968Z,2.18
2023-03-12T00:21:01.576Z,2.23
2023-03-12T00:23:28.506Z,2.24
2023-03-12T00:25:58.937Z,2.27
2023-03-12T00:28:25.369Z,2.28
2023-03-12T00:30:55.338Z,2.29
2023-03-12T00:33:23.192Z,2.34
2023-03-12T00:35:49.725Z,2.33
2023-03-12T00:38:16.244Z,2.37
2023-03-12T00:40:42.760Z,2.37
2023-03-12T00:43:09.205Z,2.38
2023-03-12T00:45:35.650Z,2.36
2023-03-12T00:48:02.229Z,2.34
2023-03-12T00:50:28.686Z,2.33
2023-03-12T00:52:55.166Z,2.26
2023-03-12T00:55:21.644Z,2.26
2023-03-12T00:57:48.465Z,2.25
2023-03-12T01:00:15.228Z,2.26
2023-03-12T01:02:41.669Z,2.27
2023-03-12T01:05:12.259Z,2.27
2023-03-12T01:07:41.816Z,2.27
2023-03-12T01:10:09.081Z,2.28
2023-03-12T01:12:35.585Z,2.28
2023-03-12T01:15:02.153Z,2.28
2023-03-12T01:17:28.565Z,2.29
2023-03-12T01:19:55.020Z,2.23
2023-03-12T01:22:21.473Z,2.21
2023-03-12T01:24:48.230Z,2.20
2023-03-12T01:27:14.739Z,2.23
2023-03-12T01:29:41.270Z,2.21
2023-03-12T01:32:07.789Z,2.21
2023-03-12T01:34:35.403Z,2.20
2023-03-12T01:37:02.362Z,2.19
2023-03-12T01:39:28.866Z,2.10
2023-03-12T01:41:55.558Z,2.09
2023-03-12T01:44:22.010Z,2.13
2023-03-12T01:46:48.524Z,2.15
2023-03-12T01:49:20.146Z,2.12
2023-03-12T01:51:59.525Z,2.16
2023-03-12T01:54:33.341Z,2.17
2023-03-12T01:57:01.504Z,2.17
2023-03-12T01:59:34.416Z,2.20
2023-03-12T02:02:01.104Z,2.21
2023-03-12T02:04:29.331Z,2.20
2023-03-12T02:07:09.443Z,2.17
2023-03-12T02:09:40.761Z,2.16
2023-03-12T02:12:08.244Z,2.13
2023-03-12T02:14:34.809Z,2.10
2023-03-12T02:17:01.420Z,2.09
2023-03-12T02:19:41.588Z,2.06
2023-03-12T02:22:10.127Z,2.04
2023-03-12T02:25:04.408Z,1.96
2023-03-12T02:27:34.098Z,1.87
2023-03-12T02:30:02.489Z,1.76
2023-03-12T02:32:35.268Z,1.75
2023-03-12T02:35:03.307Z,1.76
2023-03-12T02:37:29.734Z,1.76
2023-03-12T02:40:05.871Z,1.81
2023-03-12T02:42:33.342Z,1.82
2023-03-12T02:45:00.733Z,1.82
2023-03-12T02:47:27.456Z,1.81
2023-03-12T02:49:53.968Z,1.78
2023-03-12T02:52:20.463Z,1.79
2023-03-12T02:54:47.032Z,1.75
2023-03-12T02:57:13.543Z,1.77
2023-03-12T02:59:39.954Z,1.73
2023-03-12T03:02:06.963Z,1.67
2023-03-12T03:04:34.949Z,1.59
2023-03-12T03:07:01.549Z,1.42
2023-03-12T03:09:27.961Z,1.49
2023-03-12T03:11:54.369Z,1.50
2023-03-12T03:14:20.943Z,1.47
2023-03-12T03:16:47.538Z,1.53
2023-03-12T03:19:14.017Z,1.60
2023-03-12T03:21:40.587Z,1.66
2023-03-12T03:24:07.558Z,1.68
2023-03-12T03:26:34.056Z,1.68
2023-03-12T03:29:00.507Z,1.72
2023-03-12T03:31:27.531Z,1.70
2023-03-12T03:33:54.167Z,1.74
2023-03-12T03:36:20.655Z,1.73
2023-03-12T03:38:49.388Z,1.75
2023-03-12T03:41:19.777Z,1.78
2023-03-12T03:43:47.056Z,1.82
2023-03-12T03:46:14.855Z,1.82
2023-03-12T03:48:41.742Z,1.85
2023-03-12T03:51:10.369Z,1.88
2023-03-12T03:53:37.079Z,1.93
2023-03-12T03:56:21.582Z,1.99
2023-03-12T03:58:48.063Z,2.00
2023-03-12T04:01:15.205Z,1.99
2023-03-12T04:03:41.836Z,2.03
2023-03-12T04:06:08.675Z,2.04
2023-03-12T04:08:37.169Z,2.06
2023-03-12T04:11:12.100Z,2.06
2023-03-12T04:13:39.288Z,2.10
2023-03-12T04:16:06.377Z,2.15
2023-03-12T04:18:33.180Z,2.19
2023-03-12T04:20:59.606Z,2.21
2023-03-12T04:23:26.606Z,2.23
2023-03-12T04:25:53.086Z,2.24
2023-03-12T04:28:19.549Z,2.26
2023-03-12T04:30:54.450Z,2.25
2023-03-12T04:33:20.969Z,2.25
2023-03-12T04:35:51.833Z,2.28
2023-03-12T04:38:19.385Z,2.33
2023-03-12T04:40:46.024Z,2.40
2023-03-12T04:43:12.721Z,2.44
2023-03-12T04:45:39.286Z,2.46
2023-03-12T04:48:06.273Z,2.50
2023-03-12T04:50:32.671Z,2.52
2023-03-12T04:52:59.038Z,2.58
2023-03-12T04:55:25.442Z,2.59
2023-03-12T04:57:51.910Z,2.59
2023-03-12T05:00:18.693Z,2.57
2023-03-12T05:02:45.173Z,2.59
2023-03-12T05:05:11.843Z,2.61
2023-03-12T05:07:38.266Z,2.65
2023-03-12T05:10:05.119Z,2.67
2023-03-12T05:12:31.577Z,2.67
2023-03-12T05:14:58.035Z,2.69
2023-03-12T05:17:24.622Z,2.69
2023-03-12T05:19:51.077Z,2.68
2023-03-12T05:22:17.970Z,2.66
2023-03-12T05:24:44.495Z,2.65
2023-03-12T05:27:11.595Z,2.65
2023-03-12T05:29:38.642Z,2.59
2023-03-12T05:32:05.415Z,2.64
2023-03-12T05:34:31.946Z,2.60
2023-03-12T05:36:58.866Z,2.55
2023-03-12T05:39:26.387Z,2.58
2023-03-12T05:41:57.277Z,2.57
2023-03-12T05:44:24.712Z,2.54
2023-03-12T05:46:52.294Z,2.51
2023-03-12T05:49:19.750Z,2.44
2023-03-12T05:51:50.293Z,2.42
2023-03-12T05:54:17.530Z,2.40
2023-03-12T05:56:43.936Z,2.25
2023-03-12T05:59:10.699Z,2.26
2023-03-12T06:01:37.575Z,2.14
2023-03-12T06:04:04.165Z,1.94
2023-03-12T06:06:31.991Z,1.76
2023-03-12T06:08:58.390Z,1.73
2023-03-12T06:11:24.919Z,1.79
2023-03-12T06:13:51.419Z,1.74
2023-03-12T06:16:21.491Z,1.62
2023-03-12T06:18:47.976Z,1.63
2023-03-12T06:21:17.567Z,1.60
2023-03-12T06:23:45.170Z,1.52
2023-03-12T06:26:12.757Z,1.48
2023-03-12T06:28:39.414Z,1.56
2023-03-12T06:31:06.514Z,1.55
2023-03-12T06:33:33.265Z,1.53
2023-03-12T06:36:02.765Z,1.54
2023-03-12T06:38:29.664Z,1.57
2023-03-12T06:41:01.237Z,1.60
2023-03-12T06:43:29.936Z,1.64
2023-03-12T06:45:58.207Z,1.70
2023-03-12T06:48:25.667Z,1.62
2023-03-12T06:50:52.553Z,1.66
2023-03-12T06:53:20.139Z,1.56
2023-03-12T06:55:47.166Z,1.59
2023-03-12T06:58:13.832Z,1.62
2023-03-12T07:00:40.322Z,1.55
2023-03-12T07:03:07.187Z,1.57
2023-03-12T07:05:33.661Z,1.70
2023-03-12T07:08:00.130Z,1.81
2023-03-12T07:10:29.369Z,1.88
2023-03-12T07:12:57.237Z,1.96
2023-03-12T07:15:24.412Z,2.02
2023-03-12T07:17:51.016Z,1.88
2023-03-12T07:20:17.723Z,1.91
2023-03-12T07:22:44.197Z,1.95
2023-03-12T07:25:10.941Z,1.98
2023-03-12T07:27:37.490Z,1.99
2023-03-12T07:30:05.072Z,2.02
2023-03-12T07:32:33.535Z,2.06
2023-03-12T07:35:00.052Z,2.13
2023-03-12T07:37:26.514Z,2.16
2023-03-12T07:39:54.587Z,2.22
2023-03-12T07:42:21.340Z,2.16
2023-03-12T07:44:48.487Z,2.26
2023-03-12T07:47:23.649Z,2.29
2023-03-12T07:49:50.489Z,2.38
2023-03-12T07:52:18.081Z,2.43
2023-03-12T07:54:46.189Z,2.48
2023-03-12T07:57:12.766Z,2.53
2023-03-12T07:59:39.450Z,2.60
2023-03-12T08:02:06.077Z,2.64
2023-03-12T08:04:32.754Z,2.73
2023-03-12T08:06:59.819Z,2.80
2023-03-12T08:09:26.320Z,2.86
2023-03-12T08:11:52.878Z,2.94
2023-03-12T08:14:19.359Z,3.02
2023-03-12T08:16:46.630Z,3.12
2023-03-12T08:19:13.238Z,3.18
2023-03-12T08:21:39.729Z,3.24
2023-03-12T08:24:06.425Z,3.33
2023-03-12T08:26:32.935Z,3.39
2023-03-12T08:29:00.415Z,3.38
2023-03-12T08:31:28.953Z,3.44
2023-03-12T08:33:55.505Z,3.44
2023-03-12T08:36:22.559Z,3.52
2023-03-12T08:38:49.313Z,3.57
2023-03-12T08:41:15.898Z,3.58
2023-03-12T08:43:42.463Z,3.58
2023-03-12T08:46:11.812Z,3.58
2023-03-12T08:48:39.361Z,3.53
2023-03-12T08:51:07.495Z,3.53
2023-03-12T08:53:36.750Z,3.56
2023-03-12T08:56:04.166Z,3.59
2023-03-12T08:58:31.359Z,3.59
2023-03-12T09:00:58.232Z,3.60
2023-03-12T09:03:26.054Z,3.63
2023-03-12T09:06:06.672Z,3.70
2023-03-12T09:08:34.092Z,3.76
2023-03-12T09:11:01.770Z,3.84
2023-03-12T09:13:40.605Z,3.91
2023-03-12T09:16:14.902Z,3.97
2023-03-12T09:18:41.397Z,4.04
2023-03-12T09:21:07.983Z,4.12
2023-03-12T09:23:34.462Z,4.19
2023-03-12T09:26:00.913Z,4.20
2023-03-12T09:28:27.384Z,4.26
2023-03-12T09:30:54.180Z,4.35
2023-03-12T09:33:20.636Z,4.40
2023-03-12T09:35:56.535Z,4.48
2023-03-12T09:38:23.335Z,4.52
2023-03-12T09:40:50.156Z,4.57
2023-03-12T09:43:27.804Z,4.60
2023-03-12T09:45:55.470Z,4.65
2023-03-12T09:48:24.698Z,4.69
2023-03-12T09:50:51.799Z,4.74
2023-03-12T09:53:27.949Z,4.75
2023-03-12T09:55:57.799Z,4.76
2023-03-12T09:58:34.683Z,4.79
2023-03-12T10:01:38.644Z,4.84
2023-03-12T10:04:23.545Z,4.93
2023-03-12T10:07:01.021Z,5.00
2023-03-12T10:09:55.326Z,5.06
2023-03-12T10:12:47.729Z,5.11
2023-03-12T10:15:45.891Z,5.15
2023-03-12T10:18:38.286Z,5.21
2023-03-12T10:21:25.280Z,5.29
2023-03-12T10:24:14.562Z,5.33
2023-03-12T10:26:45.727Z,5.41
2023-03-12T10:29:26.227Z,5.53
2023-03-12T10:32:13.387Z,5.73
2023-03-12T10:34:47.388Z,5.92
2023-03-12T10:37:40.573Z,6.27
2023-03-12T10:40:08.876Z,6.38
2023-03-12T10:42:35.303Z,6.50
2023-03-12T10:45:21.335Z,6.67
2023-03-12T10:47:57.142Z,6.80
2023-03-12T10:50:27.579Z,6.89
2023-03-12T10:53:22.373Z,7.00
2023-03-12T10:56:08.771Z,7.16
2023-03-12T10:58:41.760Z,7.25
2023-03-12T11:01:24.288Z,7.32
2023-03-12T11:03:51.601Z,7.38
2023-03-12T11:06:28.066Z,7.44
2023-03-12T11:09:16.748Z,7.49
2023-03-12T11:11:47.462Z,7.55
2023-03-12T11:14:26.290Z,7.60
2023-03-12T11:16:54.460Z,7.65
2023-03-12T11:19:35.100Z,7.70
2023-03-12T11:22:04.787Z,7.74
2023-03-12T11:24:31.798Z,7.80
2023-03-12T11:27:13.228Z,7.83
2023-03-12T11:29:47.034Z,7.93
2023-03-12T11:32:31.185Z,7.97
2023-03-12T11:34:57.818Z,7.99
2023-03-12T11:37:49.899Z,8.05
2023-03-12T11:40:25.503Z,8.15
2023-03-12T11:43:42.575Z,8.22
2023-03-12T11:46:16.070Z,8.28
2023-03-12T11:49:19.916Z,8.37
2023-03-12T11:52:08.136Z,8.48
2023-03-12T11:54:59.464Z,8.54
2023-03-12T11:58:01.426Z,8.61
2023-03-12T12:01:00.128Z,8.69
2023-03-12T12:03:45.598Z,8.74
2023-03-12T12:06:56.393Z,8.83
2023-03-12T12:09:38.613Z,8.88
2023-03-12T12:12:12.089Z,8.97
2023-03-12T12:14:54.601Z,9.04
2023-03-12T12:17:23.963Z,9.10
2023-03-12T12:20:12.129Z,9.18
2023-03-12T12:22:47.574Z,9.23
2023-03-12T12:25:51.512Z,9.28
2023-03-12T12:28:24.066Z,9.33
2023-03-12T12:31:01.556Z,9.40
2023-03-12T12:33:31.098Z,9.48
2023-03-12T12:35:57.737Z,9.61
2023-03-12T12:38:41.989Z,9.67
2023-03-12T12:41:15.101Z,9.78
2023-03-12T12:44:12.092Z,9.86
2023-03-12T12:46:46.809Z,9.90
2023-03-12T12:49:29.437Z,10.00
2023-03-12T12:52:03.359Z,9.97
2023-03-12T12:55:11.859Z,10.01
2023-03-12T12:57:44.320Z,10.02
2023-03-12T13:00:22.857Z,10.05
2023-03-12T13:02:51.241Z,10.03
2023-03-12T13:05:37.465Z,10.01
2023-03-12T13:08:05.816Z,10.02
2023-03-12T13:10:34.988Z,10.09
2023-03-12T13:13:11.563Z,10.09
2023-03-12T13:15:43.519Z,10.14
2023-03-12T13:18:24.762Z,10.22
2023-03-12T13:20:54.245Z,10.35
2023-03-12T13:23:32.841Z,10.44
2023-03-12T13:26:21.135Z,10.53
2023-03-12T13:28:56.796Z,10.61
2023-03-12T13:31:29.258Z,10.73
2023-03-12T13:34:09.024Z,10.81
2023-03-12T13:36:38.661Z,10.95
2023-03-12T13:39:07.976Z,11.02
2023-03-12T13:41:54.671Z,11.06
2023-03-12T13:44:27.251Z,11.15
2023-03-12T13:47:11.047Z,11.22
2023-03-12T13:49:40.469Z,11.23
2023-03-12T13:52:32.261Z,11.21
2023-03-12T13:55:08.011Z,11.22
2023-03-12T13:57:44.733Z,11.17
2023-03-12T14:00:33.260Z,11.15
2023-03-12T14:03:01.933Z,11.12
2023-03-12T14:05:31.787Z,11.09
2023-03-12T14:08:33.673Z,11.10
2023-03-12T14:11:39.797Z,11.01
2023-03-12T14:14:31.171Z,11.01
2023-03-12T14:17:00.591Z,10.97
2023-03-12T14:19:32.923Z,10.96
2023-03-12T14:22:06.420Z,10.97
2023-03-12T14:24:40.596Z,10.93
2023-03-12T14:27:14.603Z,10.92
2023-03-12T14:29:49.219Z,10.93
2023-03-12T14:32:20.535Z,10.95
2023-03-12T14:34:52.495Z,10.97
2023-03-12T14:37:42.730Z,10.96
2023-03-12T14:40:22.894Z,11.00
2023-03-12T14:42:49.673Z,10.97
2023-03-12T14:45:23.112Z,10.99
2023-03-12T14:47:55.853Z,10.96
2023-03-12T14:50:29.453Z,11.04
2023-03-12T14:53:12.074Z,11.02
2023-03-12T14:55:38.898Z,11.16
2023-03-12T14:58:15.583Z,11.28
2023-03-12T15:00:43.705Z,11.55
2023-03-12T15:03:16.604Z,11.67
2023-03-12T15:05:47.758Z,11.60
2023-03-12T15:08:15.144Z,11.59
2023-03-12T15:10:48.733Z,11.58
2023-03-12T15:13:17.659Z,11.57
2023-03-12T15:15:49.678Z,11.63
2023-03-12T15:18:20.685Z,11.75
2023-03-12T15:20:49.547Z,11.75
2023-03-12T15:23:18.329Z,11.70
2023-03-12T15:25:46.025Z,11.59
2023-03-12T15:28:15.640Z,11.56
2023-03-12T15:30:43.211Z,11.52
2023-03-12T15:33:11.304Z,11.52
2023-03-12T15:36:01.237Z,11.42
2023-03-12T15:38:28.921Z,11.39
2023-03-12T15:41:00.454Z,11.34
2023-03-12T15:43:27.076Z,11.32
2023-03-12T15:46:02.565Z,11.32
2023-03-12T15:48:37.832Z,11.36
2023-03-12T15:51:25.842Z,11.37
2023-03-12T15:54:03.346Z,11.25
2023-03-12T15:56:32.479Z,11.22
2023-03-12T15:59:24.499Z,11.19
2023-03-12T16:01:56.201Z,11.17
2023-03-12T16:04:23.723Z,11.16
2023-03-12T16:06:51.836Z,11.12
2023-03-12T16:09:21.720Z,11.06
2023-03-12T16:11:49.136Z,11.04
2023-03-12T16:14:29.242Z,11.06
2023-03-12T16:16:55.718Z,11.04
2023-03-12T16:19:23.462Z,11.01
2023-03-12T16:21:50.336Z,10.94
2023-03-12T16:24:16.981Z,10.91
2023-03-12T16:26:53.522Z,10.92
2023-03-12T16:29:21.157Z,10.89
2023-03-12T16:31:53.791Z,10.83
2023-03-12T16:34:20.437Z,10.83
2023-03-12T16:36:46.894Z,10.85
2023-03-12T16:39:13.461Z,10.85
2023-03-12T16:41:40.191Z,10.86
2023-03-12T16:44:08.398Z,10.80
2023-03-12T16:46:35.176Z,10.80
2023-03-12T16:49:01.791Z,10.79
2023-03-12T16:51:30.801Z,10.71
2023-03-12T16:54:09.804Z,10.67
2023-03-12T16:56:41.111Z,10.68
2023-03-12T16:59:16.374Z,10.66
2023-03-12T17:01:42.934Z,10.66
2023-03-12T17:04:10.954Z,10.58
2023-03-12T17:06:40.029Z,10.53
2023-03-12T17:09:08.391Z,10.49
2023-03-12T17:11:37.804Z,10.47
2023-03-12T17:14:27.285Z,10.45
2023-03-12T17:16:53.934Z,10.44
2023-03-12T17:19:20.475Z,10.42
2023-03-12T17:21:48.395Z,10.38
2023-03-12T17:24:14.913Z,10.35
2023-03-12T17:26:42.386Z,10.32
2023-03-12T17:29:08.864Z,10.36
2023-03-12T17:31:37.676Z,10.31
2023-03-12T17:34:04.730Z,10.30
2023-03-12T17:36:31.248Z,10.30
2023-03-12T17:38:57.708Z,10.30
2023-03-12T17:41:26.996Z,10.31
2023-03-12T17:43:54.900Z,10.30
2023-03-12T17:46:21.664Z,10.27
2023-03-12T17:48:48.144Z,10.27
2023-03-12T17:51:14.725Z,10.29
2023-03-12T17:53:41.828Z,10.28
2023-03-12T17:56:08.557Z,10.28
2023-03-12T17:58:34.989Z,10.27
2023-03-12T18:01:01.672Z,10.28
2023-03-12T18:03:28.286Z,10.23
2023-03-12T18:05:54.836Z,10.23
2023-03-12T18:08:21.768Z,10.23
2023-03-12T18:10:49.014Z,10.23
2023-03-12T18:13:15.774Z,10.22
2023-03-12T18:15:42.463Z,10.22
2023-03-12T18:18:09.148Z,10.22
2023-03-12T18:20:39.564Z,10.20
2023-03-12T18:23:06.733Z,10.23
2023-03-12T18:25:33.317Z,10.25
2023-03-12T18:27:59.734Z,10.26
2023-03-12T18:30:28.192Z,10.26
2023-03-12T18:32:54.832Z,10.25
2023-03-12T18:35:22.616Z,10.27
2023-03-12T18:37:49.900Z,10.30
2023-03-12T18:40:16.467Z,10.29
2023-03-12T18:42:44.396Z,10.26
2023-03-12T18:45:12.161Z,10.27
2023-03-12T18:47:44.584Z,10.27
2023-03-12T18:50:12.868Z,10.27
2023-03-12T18:52:39.286Z,10.29
2023-03-12T18:55:06.045Z,10.29
2023-03-12T18:57:32.636Z,10.26
2023-03-12T18:59:59.451Z,10.25
2023-03-12T19:02:26.003Z,10.23
2023-03-12T19:04:55.502Z,10.24
2023-03-12T19:07:22.592Z,10.23
2023-03-12T19:09:49.050Z,10.24
2023-03-12T19:12:15.595Z,10.25
2023-03-12T19:14:42.080Z,10.25
2023-03-12T19:17:08.606Z,10.26
2023-03-12T19:19:35.114Z,10.26
2023-03-12T19:22:01.648Z,10.28
2023-03-12T19:24:28.185Z,10.27
2023-03-12T19:26:54.646Z,10.28
2023-03-12T19:29:21.237Z,10.26
2023-03-12T19:31:47.825Z,10.25
2023-03-12T19:34:14.334Z,10.22
2023-03-12T19:36:40.872Z,10.23
2023-03-12T19:39:15.170Z,10.22
2023-03-12T19:41:47.228Z,10.25
2023-03-12T19:44:13.678Z,10.22
2023-03-12T19:46:42.948Z,10.25
2023-03-12T19:49:09.390Z,10.21
2023-03-12T19:51:36.041Z,10.18
2023-03-12T19:54:02.602Z,10.17
2023-03-12T19:56:29.338Z,10.13
2023-03-12T19:58:55.899Z,10.06
2023-03-12T20:01:22.996Z,10.03
2023-03-12T20:03:49.584Z,10.02
2023-03-12T20:06:16.265Z,10.00
2023-03-12T20:08:44.458Z,10.00
2023-03-12T20:11:11.090Z,9.98
2023-03-12T20:13:38.756Z,9.96
2023-03-12T20:16:06.770Z,9.95
2023-03-12T20:18:33.516Z,9.93
2023-03-12T20:21:00.016Z,9.95
2023-03-12T20:23:26.459Z,9.98
2023-03-12T20:25:52.960Z,9.97
2023-03-12T20:28:19.531Z,9.96
2023-03-12T20:30:46.031Z,9.95
2023-03-12T20:33:13.047Z,9.96
2023-03-12T20:35:39.660Z,9.96
2023-03-12T20:38:06.236Z,9.95
2023-03-12T20:40:32.733Z,9.94
2023-03-12T20:42:59.438Z,9.93
2023-03-12T20:45:25.907Z,9.93
2023-03-12T20:47:53.518Z,9.93
2023-03-12T20:50:19.967Z,9.93
2023-03-12T20:52:46.523Z,9.92
2023-03-12T20:55:12.985Z,9.91
2023-03-12T20:57:39.451Z,9.90
2023-03-12T21:00:06.640Z,9.88
2023-03-12T21:02:33.254Z,9.89
2023-03-12T21:04:59.732Z,9.88
2023-03-12T21:07:26.219Z,9.87
2023-03-12T21:09:52.658Z,9.87
2023-03-12T21:12:19.136Z,9.89
2023-03-12T21:14:45.716Z,9.92
2023-03-12T21:17:13.737Z,9.91
2023-03-12T21:19:41.548Z,9.92
2023-03-12T21:22:08.462Z,9.93
2023-03-12T21:24:35.385Z,9.91
2023-03-12T21:27:02.316Z,9.95
2023-03-12T21:29:28.806Z,9.99
2023-03-12T21:31:55.238Z,10.01
2023-03-12T21:34:22.879Z,10.01
2023-03-12T21:36:49.341Z,10.00
2023-03-12T21:39:17.107Z,10.02
2023-03-12T21:41:43.523Z,10.01
2023-03-12T21:44:09.973Z,10.03
2023-03-12T21:46:36.679Z,10.03
2023-03-12T21:49:03.427Z,10.03
2023-03-12T21:51:30.013Z,10.05
2023-03-12T21:53:57.735Z,10.06
2023-03-12T21:56:29.277Z,10.05
2023-03-12T21:58:57.248Z,10.01
2023-03-12T22:01:24.186Z,10.00
2023-03-12T22:03:50.746Z,9.98
2023-03-12T22:06:17.368Z,9.99
2023-03-12T22:08:46.914Z,10.00
2023-03-12T22:11:13.761Z,10.01
2023-03-12T22:13:40.283Z,10.03
2023-03-12T22:16:08.978Z,10.02
2023-03-12T22:18:42.365Z,10.04
2023-03-12T22:21:20.287Z,10.04
2023-03-12T22:23:53.629Z,10.05
2023-03-12T22:26:21.439Z,10.06
2023-03-12T22:28:53.088Z,10.06
2023-03-12T22:31:21.122Z,10.08
2023-03-12T22:33:47.867Z,10.05
2023-03-12T22:36:15.871Z,10.07
2023-03-12T22:38:42.485Z,10.09
2023-03-12T22:41:13.656Z,10.09
2023-03-12T22:43:40.331Z,10.12
2023-03-12T22:46:07.003Z,10.16
2023-03-12T22:48:33.574Z,10.16
2023-03-12T22:51:00.011Z,10.16
2023-03-12T22:53:26.477Z,10.13
2023-03-12T22:56:13.832Z,10.14
2023-03-12T22:58:40.624Z,10.14
2023-03-12T23:01:10.184Z,10.18
2023-03-12T23:03:38.316Z,10.17
2023-03-12T23:06:09.574Z,10.27
2023-03-12T23:08:36.046Z,10.29
2023-03-12T23:11:03.986Z,10.28
2023-03-12T23:13:33.547Z,10.33
2023-03-12T23:16:09.003Z,10.34
2023-03-12T23:18:35.860Z,10.35
2023-03-12T23:21:04.930Z,10.37
2023-03-12T23:23:32.124Z,10.39
2023-03-12T23:26:00.168Z,10.44
2023-03-12T23:28:28.599Z,10.47
2023-03-12T23:30:57.254Z,10.49
2023-03-12T23:33:24.472Z,10.54
2023-03-12T23:35:55.973Z,10.58
2023-03-12T23:38:26.600Z,10.60
2023-03-12T23:40:53.189Z,10.59
2023-03-12T23:43:19.838Z,10.63
2023-03-12T23:45:46.540Z,10.66
2023-03-12T23:48:13.121Z,10.69
2023-03-12T23:50:41.134Z,10.72
2023-03-12T23:53:07.659Z,10.78
2023-03-12T23:55:34.104Z,10.80
2023-03-12T23:58:00.617Z,10.83
